Time,TemperatureF,DewpointF,PressureIn,WindDirection,WindDirectionDegrees,WindSpeedMPH,WindSpeedGustMPH,Humidity,HourlyPrecipIn,Conditions,Clouds,dailyrainin,SolarRadiationWatts/m^2,SoftwareType,DateUTC
2013-07-21 00:11:00,69.0,61.0,-100.00,ESE,113,3.0,9.0,76,0.00,,,0.00,0.000000,,2013-07-21 05:11:00,
2013-07-21 00:22:00,69.0,61.0,-100.00,ESE,113,3.0,9.0,76,0.00,,,0.00,0.000000,,2013-07-21 05:22:00,
2013-07-21 00:32:00,69.0,61.0,-100.00,ESE,113,3.0,9.0,76,0.00,,,0.00,0.000000,,2013-07-21 05:32:00,
2013-07-21 00:42:00,69.0,61.0,-100.00,ESE,113,3.0,9.0,76,0.00,,,0.00,0.000000,,2013-07-21 05:42:00,
2013-07-21 01:11:00,66.0,60.0,-100.00,East,101,6.0,15.0,80,0.00,,,0.00,0.000000,,2013-07-21 06:11:00,
2013-07-21 01:22:00,66.0,60.0,-100.00,East,101,6.0,15.0,80,0.00,,,0.00,0.000000,,2013-07-21 06:22:00,
2013-07-21 01:32:00,66.0,60.0,-100.00,East,101,6.0,15.0,80,0.00,,,0.00,0.000000,,2013-07-21 06:32:00,
2013-07-21 01:42:00,66.0,60.0,-100.00,East,101,6.0,15.0,80,0.00,,,0.00,0.000000,,2013-07-21 06:42:00,
2013-07-21 02:11:00,64.0,59.0,-100.00,East,95,5.0,11.0,84,0.00,,,0.00,0.000000,,2013-07-21 07:11:00,
2013-07-21 02:22:00,64.0,59.0,-100.00,East,95,5.0,11.0,84,0.00,,,0.00,0.000000,,2013-07-21 07:22:00,
2013-07-21 02:32:00,64.0,59.0,-100.00,East,95,5.0,11.0,84,0.00,,,0.00,0.000000,,2013-07-21 07:32:00,
2013-07-21 02:43:00,64.0,59.0,-100.00,East,95,5.0,11.0,84,0.00,,,0.00,0.000000,,2013-07-21 07:43:00,
2013-07-21 03:11:00,63.0,58.0,-100.00,East,97,5.0,9.0,85,0.00,,,0.00,0.000000,,2013-07-21 08:11:00,
2013-07-21 03:22:00,63.0,58.0,-100.00,East,97,5.0,9.0,85,0.00,,,0.00,0.000000,,2013-07-21 08:22:00,
2013-07-21 03:33:00,63.0,58.0,-100.00,East,97,5.0,9.0,85,0.00,,,0.00,0.000000,,2013-07-21 08:33:00,
2013-07-21 03:43:00,63.0,58.0,-100.00,East,97,5.0,9.0,85,0.00,,,0.00,0.000000,,2013-07-21 08:43:00,
2013-07-21 04:12:00,62.0,57.0,-100.00,East,93,4.0,9.0,84,0.00,,,0.00,0.000000,,2013-07-21 09:12:00,
2013-07-21 04:22:00,62.0,57.0,-100.00,East,93,4.0,9.0,84,0.00,,,0.00,0.000000,,2013-07-21 09:22:00,
2013-07-21 04:32:00,62.0,57.0,-100.00,East,93,4.0,9.0,84,0.00,,,0.00,0.000000,,2013-07-21 09:32:00,
2013-07-21 04:42:00,62.0,57.0,-100.00,East,93,4.0,9.0,84,0.00,,,0.00,0.000000,,2013-07-21 09:42:00,
2013-07-21 05:11:00,61.0,56.0,-100.00,ESE,106,4.0,9.0,85,0.00,,,0.00,0.000000,,2013-07-21 10:11:00,
2013-07-21 05:22:00,61.0,56.0,-100.00,ESE,106,4.0,9.0,85,0.00,,,0.00,0.000000,,2013-07-21 10:22:00,
2013-07-21 05:32:00,61.0,56.0,-100.00,ESE,106,4.0,9.0,85,0.00,,,0.00,0.000000,,2013-07-21 10:32:00,
2013-07-21 05:43:00,61.0,56.0,-100.00,ESE,106,4.0,9.0,85,0.00,,,0.00,0.000000,,2013-07-21 10:43:00,
2013-07-21 06:12:00,62.0,55.0,-100.00,ESE,121,5.0,11.0,78,0.00,,,0.00,1.000000,,2013-07-21 11:12:00,
2013-07-21 06:22:00,62.0,55.0,-100.00,ESE,121,5.0,11.0,78,0.00,,,0.00,1.000000,,2013-07-21 11:22:00,
2013-07-21 06:33:00,62.0,55.0,-100.00,ESE,121,5.0,11.0,78,0.00,,,0.00,1.000000,,2013-07-21 11:33:00,
2013-07-21 06:43:00,62.0,55.0,-100.00,ESE,121,5.0,11.0,78,0.00,,,0.00,1.000000,,2013-07-21 11:43:00,
2013-07-21 07:11:00,63.0,57.0,-100.00,ESE,117,4.0,9.0,81,0.00,,,0.00,52.000000,,2013-07-21 12:11:00,
2013-07-21 07:22:00,63.0,57.0,-100.00,ESE,117,4.0,9.0,81,0.00,,,0.00,52.000000,,2013-07-21 12:22:00,
2013-07-21 07:32:00,63.0,57.0,-100.00,ESE,117,4.0,9.0,81,0.00,,,0.00,52.000000,,2013-07-21 12:32:00,
2013-07-21 07:43:00,63.0,57.0,-100.00,ESE,117,4.0,9.0,81,0.00,,,0.00,52.000000,,2013-07-21 12:43:00,
2013-07-21 08:12:00,60.0,58.0,-100.00,SE,124,5.0,9.0,94,0.41,,,0.41,100.000000,,2013-07-21 13:12:00,
2013-07-21 08:22:00,60.0,58.0,-100.00,SE,124,5.0,9.0,94,0.41,,,0.41,100.000000,,2013-07-21 13:22:00,
2013-07-21 08:32:00,60.0,58.0,-100.00,SE,124,5.0,9.0,94,0.41,,,0.41,100.000000,,2013-07-21 13:32:00,
2013-07-21 08:42:00,60.0,58.0,-100.00,SE,124,5.0,9.0,94,0.41,,,0.41,100.000000,,2013-07-21 13:42:00,
2013-07-21 09:12:00,64.0,60.0,-100.00,ESE,104,5.0,10.0,87,0.00,,,0.41,222.000000,,2013-07-21 14:12:00,
2013-07-21 09:22:00,64.0,60.0,-100.00,ESE,104,5.0,10.0,87,0.00,,,0.41,222.000000,,2013-07-21 14:22:00,
2013-07-21 09:32:00,64.0,60.0,-100.00,ESE,104,5.0,10.0,87,0.00,,,0.41,222.000000,,2013-07-21 14:32:00,
2013-07-21 09:43:00,64.0,60.0,-100.00,ESE,104,5.0,10.0,87,0.00,,,0.41,222.000000,,2013-07-21 14:43:00,
2013-07-21 10:11:00,69.0,60.0,-100.00,SE,132,4.0,11.0,72,0.00,,,0.41,486.000000,,2013-07-21 15:11:00,
2013-07-21 10:22:00,69.0,60.0,-100.00,SE,132,4.0,11.0,72,0.00,,,0.41,486.000000,,2013-07-21 15:22:00,
2013-07-21 10:32:00,69.0,60.0,-100.00,SE,132,4.0,11.0,72,0.00,,,0.41,486.000000,,2013-07-21 15:32:00,
2013-07-21 10:43:00,69.0,60.0,-100.00,SE,132,4.0,11.0,72,0.00,,,0.41,486.000000,,2013-07-21 15:43:00,
2013-07-21 11:11:00,71.0,60.0,-100.00,SE,130,4.0,9.0,68,0.00,,,0.41,373.000000,,2013-07-21 16:11:00,
2013-07-21 11:22:00,71.0,60.0,-100.00,SE,130,4.0,9.0,68,0.00,,,0.41,373.000000,,2013-07-21 16:22:00,
2013-07-21 11:32:00,71.0,60.0,-100.00,SE,130,4.0,9.0,68,0.00,,,0.41,373.000000,,2013-07-21 16:32:00,
2013-07-21 11:43:00,71.0,60.0,-100.00,SE,130,4.0,9.0,68,0.00,,,0.41,373.000000,,2013-07-21 16:43:00,
2013-07-21 12:11:00,68.0,60.0,-100.00,ENE,74,5.0,9.0,76,0.00,,,0.41,201.000000,,2013-07-21 17:11:00,
2013-07-21 12:22:00,68.0,60.0,-100.00,ENE,74,5.0,9.0,76,0.00,,,0.41,201.000000,,2013-07-21 17:22:00,
2013-07-21 12:33:00,68.0,60.0,-100.00,ENE,74,5.0,9.0,76,0.00,,,0.41,201.000000,,2013-07-21 17:33:00,
2013-07-21 12:43:00,68.0,60.0,-100.00,ENE,74,5.0,9.0,76,0.00,,,0.41,201.000000,,2013-07-21 17:43:00,
2013-07-21 13:11:00,63.0,62.0,-100.00,East,86,4.0,24.0,95,0.35,,,0.76,52.000000,,2013-07-21 18:11:00,
2013-07-21 13:22:00,63.0,62.0,-100.00,East,86,4.0,24.0,95,0.35,,,0.76,52.000000,,2013-07-21 18:22:00,
2013-07-21 13:32:00,63.0,62.0,-100.00,East,86,4.0,24.0,95,0.35,,,0.76,52.000000,,2013-07-21 18:32:00,
2013-07-21 13:43:00,63.0,62.0,-100.00,East,86,4.0,24.0,95,0.35,,,0.76,52.000000,,2013-07-21 18:43:00,
2013-07-21 14:11:00,64.0,63.0,-100.00,North,8,3.0,10.0,96,0.13,,,0.89,96.000000,,2013-07-21 19:11:00,
2013-07-21 14:22:00,64.0,63.0,-100.00,North,8,3.0,10.0,96,0.13,,,0.89,96.000000,,2013-07-21 19:22:00,
2013-07-21 14:32:00,64.0,63.0,-100.00,North,8,3.0,10.0,96,0.13,,,0.89,96.000000,,2013-07-21 19:32:00,
2013-07-21 14:42:00,64.0,63.0,-100.00,North,8,3.0,10.0,96,0.13,,,0.89,96.000000,,2013-07-21 19:42:00,
2013-07-21 15:12:00,63.0,62.0,-100.00,ESE,107,4.0,7.0,95,0.07,,,0.96,28.000000,,2013-07-21 20:12:00,
2013-07-21 15:22:00,63.0,62.0,-100.00,ESE,107,4.0,7.0,95,0.07,,,0.96,28.000000,,2013-07-21 20:22:00,
2013-07-21 15:32:00,63.0,62.0,-100.00,ESE,107,4.0,7.0,95,0.07,,,0.96,28.000000,,2013-07-21 20:32:00,
2013-07-21 15:42:00,63.0,62.0,-100.00,ESE,107,4.0,7.0,95,0.07,,,0.96,28.000000,,2013-07-21 20:42:00,
2013-07-21 16:11:00,63.0,62.0,-100.00,SSE,153,4.0,8.0,96,0.07,,,1.03,72.000000,,2013-07-21 21:11:00,
2013-07-21 16:22:00,63.0,62.0,-100.00,SSE,153,4.0,8.0,96,0.07,,,1.03,72.000000,,2013-07-21 21:22:00,
2013-07-21 16:32:00,63.0,62.0,-100.00,SSE,153,4.0,8.0,96,0.07,,,1.03,72.000000,,2013-07-21 21:32:00,
2013-07-21 16:43:00,63.0,62.0,-100.00,SSE,153,4.0,8.0,96,0.07,,,1.03,72.000000,,2013-07-21 21:43:00,
2013-07-21 17:11:00,66.0,64.0,-100.00,South,174,4.0,10.0,92,0.05,,,1.08,231.000000,,2013-07-21 22:11:00,
2013-07-21 17:22:00,66.0,64.0,-100.00,South,174,4.0,10.0,92,0.05,,,1.08,231.000000,,2013-07-21 22:22:00,
2013-07-21 17:32:00,66.0,64.0,-100.00,South,174,4.0,10.0,92,0.05,,,1.08,231.000000,,2013-07-21 22:32:00,
2013-07-21 17:43:00,66.0,64.0,-100.00,South,174,4.0,10.0,92,0.05,,,1.08,231.000000,,2013-07-21 22:43:00,
2013-07-21 18:11:00,68.0,63.0,-100.00,South,171,3.0,11.0,85,0.00,,,1.08,279.000000,,2013-07-21 23:11:00,
2013-07-21 18:22:00,68.0,63.0,-100.00,South,171,3.0,11.0,85,0.00,,,1.08,279.000000,,2013-07-21 23:22:00,
2013-07-21 18:32:00,68.0,63.0,-100.00,South,171,3.0,11.0,85,0.00,,,1.08,279.000000,,2013-07-21 23:32:00,
2013-07-21 18:42:00,68.0,63.0,-100.00,South,171,3.0,11.0,85,0.00,,,1.08,279.000000,,2013-07-21 23:42:00,
2013-07-21 19:11:00,70.0,64.0,-100.00,East,96,4.0,6.0,81,0.00,,,1.08,282.000000,,2013-07-22 00:11:00,
2013-07-21 19:22:00,70.0,64.0,-100.00,East,96,4.0,6.0,81,0.00,,,1.08,282.000000,,2013-07-22 00:22:00,
2013-07-21 19:32:00,70.0,64.0,-100.00,East,96,4.0,6.0,81,0.00,,,1.08,282.000000,,2013-07-22 00:32:00,
2013-07-21 19:42:00,70.0,64.0,-100.00,East,96,4.0,6.0,81,0.00,,,1.08,282.000000,,2013-07-22 00:42:00,
2013-07-21 20:11:00,68.0,65.0,-100.00,SSE,148,2.0,7.0,89,0.00,,,1.08,71.000000,,2013-07-22 01:11:00,
2013-07-21 20:22:00,68.0,65.0,-100.00,SSE,148,2.0,7.0,89,0.00,,,1.08,71.000000,,2013-07-22 01:22:00,
2013-07-21 20:32:00,68.0,65.0,-100.00,SSE,148,2.0,7.0,89,0.00,,,1.08,71.000000,,2013-07-22 01:32:00,
2013-07-21 20:42:00,68.0,65.0,-100.00,SSE,148,2.0,7.0,89,0.00,,,1.08,71.000000,,2013-07-22 01:42:00,
2013-07-21 21:11:00,66.0,63.0,-100.00,ESE,103,3.0,7.0,91,0.00,,,1.08,16.000000,,2013-07-22 02:11:00,
2013-07-21 21:22:00,66.0,63.0,-100.00,ESE,103,3.0,7.0,91,0.00,,,1.08,16.000000,,2013-07-22 02:22:00,
2013-07-21 21:32:00,66.0,63.0,-100.00,ESE,103,3.0,7.0,91,0.00,,,1.08,16.000000,,2013-07-22 02:32:00,
2013-07-21 21:43:00,66.0,63.0,-100.00,ESE,103,3.0,7.0,91,0.00,,,1.08,16.000000,,2013-07-22 02:43:00,
2013-07-21 22:12:00,64.0,63.0,-100.00,ESE,106,3.0,6.0,96,0.00,,,1.08,0.000000,,2013-07-22 03:12:00,
2013-07-21 22:22:00,64.0,63.0,-100.00,ESE,106,3.0,6.0,96,0.00,,,1.08,0.000000,,2013-07-22 03:22:00,
2013-07-21 22:33:00,64.0,63.0,-100.00,ESE,106,3.0,6.0,96,0.00,,,1.08,0.000000,,2013-07-22 03:33:00,
2013-07-21 22:43:00,64.0,63.0,-100.00,ESE,106,3.0,6.0,96,0.00,,,1.08,0.000000,,2013-07-22 03:43:00,
2013-07-21 23:12:00,63.0,62.0,-100.00,SE,133,1.0,5.0,97,0.00,,,1.08,0.000000,,2013-07-22 04:12:00,
2013-07-21 23:22:00,63.0,62.0,-100.00,SE,133,1.0,5.0,97,0.00,,,1.08,0.000000,,2013-07-22 04:22:00,
2013-07-21 23:33:00,63.0,62.0,-100.00,SE,133,1.0,5.0,97,0.00,,,1.08,0.000000,,2013-07-22 04:33:00,
2013-07-21 23:43:00,63.0,62.0,-100.00,SE,133,1.0,5.0,97,0.00,,,1.08,0.000000,,2013-07-22 04:43:00,